sensor_id;sensor_type;location;lat;lon;timestamp;temperature;humidity
9810;DHT22;4944;52.514;13.192;2023-05-07T00:00:49;10.50;99.90
9810;DHT22;4944;52.514;13.192;2023-05-07T00:03:16;10.50;99.90
9810;DHT22;4944;52.514;13.192;2023-05-07T00:05:45;10.40;99.90
9810;DHT22;4944;52.514;13.192;2023-05-07T00:08:13;10.40;99.90
9810;DHT22;4944;52.514;13.192;2023-05-07T00:10:40;10.50;99.90
9810;DHT22;4944;52.514;13.192;2023-05-07T00:13:07;10.40;99.90
9810;DHT22;4944;52.514;13.192;2023-05-07T00:15:34;10.50;99.90
9810;DHT22;4944;52.514;13.192;2023-05-07T00:18:01;10.50;99.90
9810;DHT22;4944;52.514;13.192;2023-05-07T00:20:28;10.50;99.90
9810;DHT22;4944;52.514;13.192;2023-05-07T00:22:56;10.50;99.90
9810;DHT22;4944;52.514;13.192;2023-05-07T00:25:23;10.50;99.90
9810;DHT22;4944;52.514;13.192;2023-05-07T00:27:50;10.50;99.90
9810;DHT22;4944;52.514;13.192;2023-05-07T00:30:17;10.60;99.90
9810;DHT22;4944;52.514;13.192;2023-05-07T00:32:44;10.60;99.90
9810;DHT22;4944;52.514;13.192;2023-05-07T00:35:12;10.60;99.90
9810;DHT22;4944;52.514;13.192;2023-05-07T00:37:39;10.50;99.90
9810;DHT22;4944;52.514;13.192;2023-05-07T00:40:08;10.60;99.90
9810;DHT22;4944;52.514;13.192;2023-05-07T00:42:36;10.60;99.90
9810;DHT22;4944;52.514;13.192;2023-05-07T00:45:03;10.60;99.90
9810;DHT22;4944;52.514;13.192;2023-05-07T00:47:31;10.60;99.90
9810;DHT22;4944;52.514;13.192;2023-05-07T00:49:57;10.60;99.90
9810;DHT22;4944;52.514;13.192;2023-05-07T00:52:26;10.60;99.90
9810;DHT22;4944;52.514;13.192;2023-05-07T00:54:53;10.60;99.90
9810;DHT22;4944;52.514;13.192;2023-05-07T00:57:24;10.60;99.90
9810;DHT22;4944;52.514;13.192;2023-05-07T00:59:51;10.60;99.90
9810;DHT22;4944;52.514;13.192;2023-05-07T01:02:18;10.70;99.90
9810;DHT22;4944;52.514;13.192;2023-05-07T01:04:45;10.70;99.90
9810;DHT22;4944;52.514;13.192;2023-05-07T01:07:12;10.60;99.90
9810;DHT22;4944;52.514;13.192;2023-05-07T01:09:40;10.60;99.90
9810;DHT22;4944;52.514;13.192;2023-05-07T01:12:07;10.70;99.90
9810;DHT22;4944;52.514;13.192;2023-05-07T01:14:36;10.60;99.90
9810;DHT22;4944;52.514;13.192;2023-05-07T01:17:03;10.60;99.90
9810;DHT22;4944;52.514;13.192;2023-05-07T01:19:30;10.70;99.90
9810;DHT22;4944;52.514;13.192;2023-05-07T01:22:02;10.70;99.90
9810;DHT22;4944;52.514;13.192;2023-05-07T01:24:32;10.70;99.90
9810;DHT22;4944;52.514;13.192;2023-05-07T01:26:59;10.70;99.90
9810;DHT22;4944;52.514;13.192;2023-05-07T01:29:28;10.60;99.90
9810;DHT22;4944;52.514;13.192;2023-05-07T01:31:57;10.60;99.90
9810;DHT22;4944;52.514;13.192;2023-05-07T01:34:25;10.60;99.90
9810;DHT22;4944;52.514;13.192;2023-05-07T01:36:54;10.70;99.90
9810;DHT22;4944;52.514;13.192;2023-05-07T01:39:24;10.60;99.90
9810;DHT22;4944;52.514;13.192;2023-05-07T01:41:54;10.60;99.90
9810;DHT22;4944;52.514;13.192;2023-05-07T01:44:22;10.60;99.90
9810;DHT22;4944;52.514;13.192;2023-05-07T01:46:49;10.60;99.90
9810;DHT22;4944;52.514;13.192;2023-05-07T01:49:17;10.50;99.90
9810;DHT22;4944;52.514;13.192;2023-05-07T01:51:44;10.50;99.90
9810;DHT22;4944;52.514;13.192;2023-05-07T01:54:11;10.50;99.90
9810;DHT22;4944;52.514;13.192;2023-05-07T01:56:37;10.50;99.90
9810;DHT22;4944;52.514;13.192;2023-05-07T01:59:06;10.50;99.90
9810;DHT22;4944;52.514;13.192;2023-05-07T02:01:33;10.50;99.90
9810;DHT22;4944;52.514;13.192;2023-05-07T02:04:00;10.50;99.90
9810;DHT22;4944;52.514;13.192;2023-05-07T02:06:27;10.50;99.90
9810;DHT22;4944;52.514;13.192;2023-05-07T02:08:53;10.50;99.90
9810;DHT22;4944;52.514;13.192;2023-05-07T02:11:20;10.60;99.90
9810;DHT22;4944;52.514;13.192;2023-05-07T02:13:47;10.50;99.90
9810;DHT22;4944;52.514;13.192;2023-05-07T02:16:15;10.50;99.90
9810;DHT22;4944;52.514;13.192;2023-05-07T02:18:42;10.50;99.90
9810;DHT22;4944;52.514;13.192;2023-05-07T02:21:09;10.50;99.90
9810;DHT22;4944;52.514;13.192;2023-05-07T02:23:36;10.40;99.90
9810;DHT22;4944;52.514;13.192;2023-05-07T02:26:04;10.50;99.90
9810;DHT22;4944;52.514;13.192;2023-05-07T02:28:31;10.40;99.90
9810;DHT22;4944;52.514;13.192;2023-05-07T02:31:01;10.50;99.90
9810;DHT22;4944;52.514;13.192;2023-05-07T02:33:30;10.50;99.90
9810;DHT22;4944;52.514;13.192;2023-05-07T02:35:57;10.50;99.90
9810;DHT22;4944;52.514;13.192;2023-05-07T02:38:24;10.50;99.90
9810;DHT22;4944;52.514;13.192;2023-05-07T02:40:50;10.50;99.90
9810;DHT22;4944;52.514;13.192;2023-05-07T02:43:17;10.50;99.90
9810;DHT22;4944;52.514;13.192;2023-05-07T02:45:44;10.50;99.90
9810;DHT22;4944;52.514;13.192;2023-05-07T02:48:11;10.50;99.90
9810;DHT22;4944;52.514;13.192;2023-05-07T02:50:39;10.50;99.90
9810;DHT22;4944;52.514;13.192;2023-05-07T02:53:06;10.50;99.90
9810;DHT22;4944;52.514;13.192;2023-05-07T02:55:33;10.50;99.90
9810;DHT22;4944;52.514;13.192;2023-05-07T02:58:00;10.40;99.90
9810;DHT22;4944;52.514;13.192;2023-05-07T03:00:27;10.40;99.90
9810;DHT22;4944;52.514;13.192;2023-05-07T03:02:54;10.40;99.90
9810;DHT22;4944;52.514;13.192;2023-05-07T03:05:21;10.40;99.90
9810;DHT22;4944;52.514;13.192;2023-05-07T03:07:49;10.30;99.90
9810;DHT22;4944;52.514;13.192;2023-05-07T03:10:16;10.40;99.90
9810;DHT22;4944;52.514;13.192;2023-05-07T03:12:44;10.30;99.90
9810;DHT22;4944;52.514;13.192;2023-05-07T03:15:10;10.30;99.90
9810;DHT22;4944;52.514;13.192;2023-05-07T03:17:38;10.30;99.90
9810;DHT22;4944;52.514;13.192;2023-05-07T03:20:06;10.30;99.90
9810;DHT22;4944;52.514;13.192;2023-05-07T03:22:33;10.30;99.90
9810;DHT22;4944;52.514;13.192;2023-05-07T03:25:02;10.30;99.90
9810;DHT22;4944;52.514;13.192;2023-05-07T03:27:29;10.30;99.90
9810;DHT22;4944;52.514;13.192;2023-05-07T03:29:56;10.30;99.90
9810;DHT22;4944;52.514;13.192;2023-05-07T03:32:23;10.30;99.90
9810;DHT22;4944;52.514;13.192;2023-05-07T03:34:50;10.30;99.90
9810;DHT22;4944;52.514;13.192;2023-05-07T03:37:17;10.30;99.90
9810;DHT22;4944;52.514;13.192;2023-05-07T03:39:44;10.40;99.90
9810;DHT22;4944;52.514;13.192;2023-05-07T03:42:12;10.40;99.90
9810;DHT22;4944;52.514;13.192;2023-05-07T03:44:40;10.30;99.90
9810;DHT22;4944;52.514;13.192;2023-05-07T03:47:07;10.30;99.90
9810;DHT22;4944;52.514;13.192;2023-05-07T03:49:35;10.30;99.90
9810;DHT22;4944;52.514;13.192;2023-05-07T03:52:02;10.30;99.90
9810;DHT22;4944;52.514;13.192;2023-05-07T03:54:30;10.40;99.90
9810;DHT22;4944;52.514;13.192;2023-05-07T03:56:57;10.40;99.90
9810;DHT22;4944;52.514;13.192;2023-05-07T03:59:25;10.40;99.90
9810;DHT22;4944;52.514;13.192;2023-05-07T04:01:52;10.30;99.90
9810;DHT22;4944;52.514;13.192;2023-05-07T04:04:19;10.40;99.90
9810;DHT22;4944;52.514;13.192;2023-05-07T04:06:46;10.40;99.90
9810;DHT22;4944;52.514;13.192;2023-05-07T04:09:13;10.30;99.90
9810;DHT22;4944;52.514;13.192;2023-05-07T04:11:40;10.40;99.90
9810;DHT22;4944;52.514;13.192;2023-05-07T04:14:07;10.40;99.90
9810;DHT22;4944;52.514;13.192;2023-05-07T04:16:36;10.40;99.90
9810;DHT22;4944;52.514;13.192;2023-05-07T04:19:02;10.40;99.90
9810;DHT22;4944;52.514;13.192;2023-05-07T04:21:29;10.40;99.90
9810;DHT22;4944;52.514;13.192;2023-05-07T04:23:56;10.40;99.90
9810;DHT22;4944;52.514;13.192;2023-05-07T04:26:23;10.30;99.90
9810;DHT22;4944;52.514;13.192;2023-05-07T04:28:50;10.30;99.90
9810;DHT22;4944;52.514;13.192;2023-05-07T04:31:17;10.30;99.90
9810;DHT22;4944;52.514;13.192;2023-05-07T04:33:45;10.30;99.90
9810;DHT22;4944;52.514;13.192;2023-05-07T04:36:12;10.30;99.90
9810;DHT22;4944;52.514;13.192;2023-05-07T04:38:39;10.40;99.90
9810;DHT22;4944;52.514;13.192;2023-05-07T04:41:06;10.40;99.90
9810;DHT22;4944;52.514;13.192;2023-05-07T04:43:33;10.30;99.90
9810;DHT22;4944;52.514;13.192;2023-05-07T04:46:00;10.30;99.90
9810;DHT22;4944;52.514;13.192;2023-05-07T04:48:27;10.30;99.90
9810;DHT22;4944;52.514;13.192;2023-05-07T04:50:56;10.30;99.90
9810;DHT22;4944;52.514;13.192;2023-05-07T04:53:23;10.30;99.90
9810;DHT22;4944;52.514;13.192;2023-05-07T04:55:55;10.30;99.90
9810;DHT22;4944;52.514;13.192;2023-05-07T04:58:22;10.30;99.90
9810;DHT22;4944;52.514;13.192;2023-05-07T05:00:49;10.30;99.90
9810;DHT22;4944;52.514;13.192;2023-05-07T05:03:16;10.40;99.90
9810;DHT22;4944;52.514;13.192;2023-05-07T05:05:43;10.40;99.90
9810;DHT22;4944;52.514;13.192;2023-05-07T05:08:11;10.40;99.90
9810;DHT22;4944;52.514;13.192;2023-05-07T05:10:38;10.40;99.90
9810;DHT22;4944;52.514;13.192;2023-05-07T05:13:06;10.40;99.90
9810;DHT22;4944;52.514;13.192;2023-05-07T05:15:33;10.40;99.90
9810;DHT22;4944;52.514;13.192;2023-05-07T05:18:00;10.50;99.90
9810;DHT22;4944;52.514;13.192;2023-05-07T05:20:27;10.40;99.90
9810;DHT22;4944;52.514;13.192;2023-05-07T05:22:54;10.50;99.90
9810;DHT22;4944;52.514;13.192;2023-05-07T05:25:22;10.50;99.90
9810;DHT22;4944;52.514;13.192;2023-05-07T05:27:49;10.50;99.90
9810;DHT22;4944;52.514;13.192;2023-05-07T05:30:16;10.50;99.90
9810;DHT22;4944;52.514;13.192;2023-05-07T05:32:43;10.50;99.90
9810;DHT22;4944;52.514;13.192;2023-05-07T05:35:10;10.60;99.90
9810;DHT22;4944;52.514;13.192;2023-05-07T05:37:36;10.60;99.90
9810;DHT22;4944;52.514;13.192;2023-05-07T05:40:04;10.60;99.90
9810;DHT22;4944;52.514;13.192;2023-05-07T05:42:32;10.60;99.90
9810;DHT22;4944;52.514;13.192;2023-05-07T05:44:59;10.60;99.90
9810;DHT22;4944;52.514;13.192;2023-05-07T05:47:26;10.70;99.90
9810;DHT22;4944;52.514;13.192;2023-05-07T05:49:53;10.70;99.90
9810;DHT22;4944;52.514;13.192;2023-05-07T05:52:20;10.60;99.90
9810;DHT22;4944;52.514;13.192;2023-05-07T05:54:49;10.70;99.90
9810;DHT22;4944;52.514;13.192;2023-05-07T05:57:16;10.70;99.90
9810;DHT22;4944;52.514;13.192;2023-05-07T05:59:44;10.70;99.90
9810;DHT22;4944;52.514;13.192;2023-05-07T06:02:12;10.70;99.90
9810;DHT22;4944;52.514;13.192;2023-05-07T06:04:39;10.80;99.90
9810;DHT22;4944;52.514;13.192;2023-05-07T06:07:08;10.80;99.90
9810;DHT22;4944;52.514;13.192;2023-05-07T06:09:34;10.80;99.90
9810;DHT22;4944;52.514;13.192;2023-05-07T06:12:01;10.90;99.90
9810;DHT22;4944;52.514;13.192;2023-05-07T06:14:28;10.90;99.90
9810;DHT22;4944;52.514;13.192;2023-05-07T06:16:56;10.90;99.90
9810;DHT22;4944;52.514;13.192;2023-05-07T06:19:23;10.80;99.90
9810;DHT22;4944;52.514;13.192;2023-05-07T06:21:52;10.90;99.90
9810;DHT22;4944;52.514;13.192;2023-05-07T06:24:18;10.90;99.90
9810;DHT22;4944;52.514;13.192;2023-05-07T06:26:45;11.00;99.90
9810;DHT22;4944;52.514;13.192;2023-05-07T06:29:12;11.00;99.90
9810;DHT22;4944;52.514;13.192;2023-05-07T06:31:39;11.00;99.90
9810;DHT22;4944;52.514;13.192;2023-05-07T06:34:08;11.00;99.90
9810;DHT22;4944;52.514;13.192;2023-05-07T06:36:35;11.00;99.90
9810;DHT22;4944;52.514;13.192;2023-05-07T06:39:02;11.10;99.90
9810;DHT22;4944;52.514;13.192;2023-05-07T06:41:29;11.10;99.90
9810;DHT22;4944;52.514;13.192;2023-05-07T06:43:56;11.10;99.90
9810;DHT22;4944;52.514;13.192;2023-05-07T06:46:23;11.20;99.90
9810;DHT22;4944;52.514;13.192;2023-05-07T06:48:49;11.20;99.90
9810;DHT22;4944;52.514;13.192;2023-05-07T06:51:19;11.20;99.90
9810;DHT22;4944;52.514;13.192;2023-05-07T06:53:46;11.30;99.90
9810;DHT22;4944;52.514;13.192;2023-05-07T06:56:12;11.30;99.90
9810;DHT22;4944;52.514;13.192;2023-05-07T06:58:40;11.30;99.90
9810;DHT22;4944;52.514;13.192;2023-05-07T07:01:06;11.40;99.90
9810;DHT22;4944;52.514;13.192;2023-05-07T07:03:33;11.40;99.90
9810;DHT22;4944;52.514;13.192;2023-05-07T07:06:00;11.40;99.90
9810;DHT22;4944;52.514;13.192;2023-05-07T07:08:30;11.50;99.90
9810;DHT22;4944;52.514;13.192;2023-05-07T07:10:57;11.40;99.90
9810;DHT22;4944;52.514;13.192;2023-05-07T07:13:24;11.50;99.90
9810;DHT22;4944;52.514;13.192;2023-05-07T07:15:51;11.50;99.90
9810;DHT22;4944;52.514;13.192;2023-05-07T07:18:19;11.50;99.90
9810;DHT22;4944;52.514;13.192;2023-05-07T07:20:46;11.60;99.90
9810;DHT22;4944;52.514;13.192;2023-05-07T07:23:13;11.60;99.90
9810;DHT22;4944;52.514;13.192;2023-05-07T07:25:41;11.60;99.90
9810;DHT22;4944;52.514;13.192;2023-05-07T07:28:08;11.60;99.90
9810;DHT22;4944;52.514;13.192;2023-05-07T07:30:36;11.60;99.90
9810;DHT22;4944;52.514;13.192;2023-05-07T07:33:03;11.60;99.90
9810;DHT22;4944;52.514;13.192;2023-05-07T07:35:30;11.60;99.90
9810;DHT22;4944;52.514;13.192;2023-05-07T07:37:57;11.60;99.90
9810;DHT22;4944;52.514;13.192;2023-05-07T07:40:24;11.70;99.90
9810;DHT22;4944;52.514;13.192;2023-05-07T07:42:53;11.70;99.90
9810;DHT22;4944;52.514;13.192;2023-05-07T07:45:21;11.80;99.90
9810;DHT22;4944;52.514;13.192;2023-05-07T07:47:48;11.90;99.90
9810;DHT22;4944;52.514;13.192;2023-05-07T07:50:15;11.90;99.90
9810;DHT22;4944;52.514;13.192;2023-05-07T07:52:41;12.00;99.90
9810;DHT22;4944;52.514;13.192;2023-05-07T07:55:09;12.10;99.90
9810;DHT22;4944;52.514;13.192;2023-05-07T07:57:36;12.10;99.90
9810;DHT22;4944;52.514;13.192;2023-05-07T08:00:06;12.20;99.90
9810;DHT22;4944;52.514;13.192;2023-05-07T08:02:33;12.20;99.90
9810;DHT22;4944;52.514;13.192;2023-05-07T08:05:00;12.20;99.90
9810;DHT22;4944;52.514;13.192;2023-05-07T08:07:27;12.30;99.90
9810;DHT22;4944;52.514;13.192;2023-05-07T08:09:54;12.30;99.90
9810;DHT22;4944;52.514;13.192;2023-05-07T08:12:21;12.40;99.90
9810;DHT22;4944;52.514;13.192;2023-05-07T08:14:47;12.40;99.90
9810;DHT22;4944;52.514;13.192;2023-05-07T08:17:16;12.50;99.90
9810;DHT22;4944;52.514;13.192;2023-05-07T08:19:43;12.60;99.90
9810;DHT22;4944;52.514;13.192;2023-05-07T08:22:10;12.60;99.90
9810;DHT22;4944;52.514;13.192;2023-05-07T08:24:37;12.60;99.90
9810;DHT22;4944;52.514;13.192;2023-05-07T08:27:04;12.70;99.90
9810;DHT22;4944;52.514;13.192;2023-05-07T08:29:31;12.70;99.90
9810;DHT22;4944;52.514;13.192;2023-05-07T08:31:58;12.90;99.90
9810;DHT22;4944;52.514;13.192;2023-05-07T08:34:26;13.00;99.90
9810;DHT22;4944;52.514;13.192;2023-05-07T08:36:53;13.10;99.90
9810;DHT22;4944;52.514;13.192;2023-05-07T08:39:20;13.10;99.90
9810;DHT22;4944;52.514;13.192;2023-05-07T08:41:48;13.20;99.90
9810;DHT22;4944;52.514;13.192;2023-05-07T08:44:21;13.20;99.90
9810;DHT22;4944;52.514;13.192;2023-05-07T08:46:50;13.20;99.90
9810;DHT22;4944;52.514;13.192;2023-05-07T08:49:20;13.20;99.90
9810;DHT22;4944;52.514;13.192;2023-05-07T08:51:48;13.30;99.90
9810;DHT22;4944;52.514;13.192;2023-05-07T08:54:16;13.40;99.90
9810;DHT22;4944;52.514;13.192;2023-05-07T08:56:43;13.40;99.90
9810;DHT22;4944;52.514;13.192;2023-05-07T08:59:10;13.50;99.90
9810;DHT22;4944;52.514;13.192;2023-05-07T09:01:37;13.50;99.90
9810;DHT22;4944;52.514;13.192;2023-05-07T09:04:04;13.50;99.90
9810;DHT22;4944;52.514;13.192;2023-05-07T09:06:32;13.50;99.90
9810;DHT22;4944;52.514;13.192;2023-05-07T09:09:00;13.60;99.90
9810;DHT22;4944;52.514;13.192;2023-05-07T09:11:30;13.50;99.90
9810;DHT22;4944;52.514;13.192;2023-05-07T09:13:57;13.60;99.90
9810;DHT22;4944;52.514;13.192;2023-05-07T09:16:28;13.60;99.90
9810;DHT22;4944;52.514;13.192;2023-05-07T09:18:58;13.60;99.90
9810;DHT22;4944;52.514;13.192;2023-05-07T09:21:25;13.60;99.90
9810;DHT22;4944;52.514;13.192;2023-05-07T09:23:54;13.70;99.90
9810;DHT22;4944;52.514;13.192;2023-05-07T09:26:23;13.80;99.90
9810;DHT22;4944;52.514;13.192;2023-05-07T09:28:50;13.80;99.90
9810;DHT22;4944;52.514;13.192;2023-05-07T09:31:17;13.90;99.90
9810;DHT22;4944;52.514;13.192;2023-05-07T09:33:44;14.00;99.90
9810;DHT22;4944;52.514;13.192;2023-05-07T09:36:11;14.00;99.90
9810;DHT22;4944;52.514;13.192;2023-05-07T09:38:38;14.10;99.90
9810;DHT22;4944;52.514;13.192;2023-05-07T09:41:06;14.20;99.90
9810;DHT22;4944;52.514;13.192;2023-05-07T09:43:37;14.30;99.90
9810;DHT22;4944;52.514;13.192;2023-05-07T09:46:07;14.30;99.90
9810;DHT22;4944;52.514;13.192;2023-05-07T09:48:37;14.30;99.90
9810;DHT22;4944;52.514;13.192;2023-05-07T09:51:11;14.50;99.90
9810;DHT22;4944;52.514;13.192;2023-05-07T09:53:42;14.60;99.90
9810;DHT22;4944;52.514;13.192;2023-05-07T09:56:12;14.70;99.90
9810;DHT22;4944;52.514;13.192;2023-05-07T09:58:41;14.70;99.90
9810;DHT22;4944;52.514;13.192;2023-05-07T10:01:10;14.70;99.90
9810;DHT22;4944;52.514;13.192;2023-05-07T10:03:40;14.70;99.90
9810;DHT22;4944;52.514;13.192;2023-05-07T10:06:08;14.80;99.90
9810;DHT22;4944;52.514;13.192;2023-05-07T10:08:35;14.70;99.90
9810;DHT22;4944;52.514;13.192;2023-05-07T10:11:03;14.70;99.90
9810;DHT22;4944;52.514;13.192;2023-05-07T10:13:31;14.70;99.90
9810;DHT22;4944;52.514;13.192;2023-05-07T10:16:00;14.70;99.90
9810;DHT22;4944;52.514;13.192;2023-05-07T10:18:28;14.90;99.90
9810;DHT22;4944;52.514;13.192;2023-05-07T10:21:04;15.00;99.90
9810;DHT22;4944;52.514;13.192;2023-05-07T10:23:34;15.00;99.90
9810;DHT22;4944;52.514;13.192;2023-05-07T10:26:03;15.20;99.90
9810;DHT22;4944;52.514;13.192;2023-05-07T10:28:33;15.10;99.90
9810;DHT22;4944;52.514;13.192;2023-05-07T10:31:18;15.20;99.90
9810;DHT22;4944;52.514;13.192;2023-05-07T10:33:51;15.20;99.90
9810;DHT22;4944;52.514;13.192;2023-05-07T10:36:20;15.30;99.90
9810;DHT22;4944;52.514;13.192;2023-05-07T10:38:48;15.40;99.90
9810;DHT22;4944;52.514;13.192;2023-05-07T10:41:15;15.50;99.90
9810;DHT22;4944;52.514;13.192;2023-05-07T10:43:45;15.60;99.90
9810;DHT22;4944;52.514;13.192;2023-05-07T10:46:16;15.70;99.90
9810;DHT22;4944;52.514;13.192;2023-05-07T10:49:08;15.90;99.90
9810;DHT22;4944;52.514;13.192;2023-05-07T10:51:37;15.90;99.90
9810;DHT22;4944;52.514;13.192;2023-05-07T10:54:22;16.00;99.90
9810;DHT22;4944;52.514;13.192;2023-05-07T10:56:49;16.00;99.90
9810;DHT22;4944;52.514;13.192;2023-05-07T10:59:34;16.10;99.90
9810;DHT22;4944;52.514;13.192;2023-05-07T11:02:09;16.20;99.90
9810;DHT22;4944;52.514;13.192;2023-05-07T11:04:37;16.10;99.90
9810;DHT22;4944;52.514;13.192;2023-05-07T11:07:28;16.10;99.90
9810;DHT22;4944;52.514;13.192;2023-05-07T11:10:05;16.10;99.90
9810;DHT22;4944;52.514;13.192;2023-05-07T11:12:49;16.20;99.90
9810;DHT22;4944;52.514;13.192;2023-05-07T11:15:38;16.20;99.90
9810;DHT22;4944;52.514;13.192;2023-05-07T11:18:07;16.10;99.90
9810;DHT22;4944;52.514;13.192;2023-05-07T11:20:55;16.20;99.90
9810;DHT22;4944;52.514;13.192;2023-05-07T11:26:48;16.30;99.90
9810;DHT22;4944;52.514;13.192;2023-05-07T11:29:16;16.40;99.90
9810;DHT22;4944;52.514;13.192;2023-05-07T11:31:43;16.40;99.90
9810;DHT22;4944;52.514;13.192;2023-05-07T11:34:12;16.40;99.90
9810;DHT22;4944;52.514;13.192;2023-05-07T11:36:43;16.40;99.90
9810;DHT22;4944;52.514;13.192;2023-05-07T11:39:27;16.50;99.90
9810;DHT22;4944;52.514;13.192;2023-05-07T11:41:54;16.70;99.90
9810;DHT22;4944;52.514;13.192;2023-05-07T11:44:21;16.80;99.90
9810;DHT22;4944;52.514;13.192;2023-05-07T11:46:48;17.00;99.90
9810;DHT22;4944;52.514;13.192;2023-05-07T11:49:17;17.10;99.90
9810;DHT22;4944;52.514;13.192;2023-05-07T11:51:44;17.10;99.90
9810;DHT22;4944;52.514;13.192;2023-05-07T11:54:15;17.40;99.90
9810;DHT22;4944;52.514;13.192;2023-05-07T11:56:43;17.60;99.90
9810;DHT22;4944;52.514;13.192;2023-05-07T11:59:10;17.90;99.90
9810;DHT22;4944;52.514;13.192;2023-05-07T12:01:37;17.90;99.90
9810;DHT22;4944;52.514;13.192;2023-05-07T12:04:04;18.00;99.90
9810;DHT22;4944;52.514;13.192;2023-05-07T12:06:36;18.00;99.90
9810;DHT22;4944;52.514;13.192;2023-05-07T12:09:04;18.00;99.90
9810;DHT22;4944;52.514;13.192;2023-05-07T12:11:32;18.00;99.90
9810;DHT22;4944;52.514;13.192;2023-05-07T12:13:59;18.10;99.90
9810;DHT22;4944;52.514;13.192;2023-05-07T12:16:26;18.10;99.90
9810;DHT22;4944;52.514;13.192;2023-05-07T12:18:53;18.20;99.90
9810;DHT22;4944;52.514;13.192;2023-05-07T12:21:20;18.10;99.90
9810;DHT22;4944;52.514;13.192;2023-05-07T12:23:49;18.10;99.90
9810;DHT22;4944;52.514;13.192;2023-05-07T12:26:17;18.00;99.90
9810;DHT22;4944;52.514;13.192;2023-05-07T12:28:46;17.80;99.90
9810;DHT22;4944;52.514;13.192;2023-05-07T12:31:14;17.80;99.90
9810;DHT22;4944;52.514;13.192;2023-05-07T12:33:41;17.90;99.90
9810;DHT22;4944;52.514;13.192;2023-05-07T12:36:09;18.00;99.90
9810;DHT22;4944;52.514;13.192;2023-05-07T12:38:38;18.00;99.90
9810;DHT22;4944;52.514;13.192;2023-05-07T12:41:09;17.90;99.90
9810;DHT22;4944;52.514;13.192;2023-05-07T12:43:36;17.80;99.90
9810;DHT22;4944;52.514;13.192;2023-05-07T12:46:05;17.80;99.90
9810;DHT22;4944;52.514;13.192;2023-05-07T12:48:32;17.80;99.90
9810;DHT22;4944;52.514;13.192;2023-05-07T12:51:01;17.70;99.90
9810;DHT22;4944;52.514;13.192;2023-05-07T12:53:29;17.60;99.90
9810;DHT22;4944;52.514;13.192;2023-05-07T12:55:57;17.60;99.90
9810;DHT22;4944;52.514;13.192;2023-05-07T12:58:27;17.80;99.90
9810;DHT22;4944;52.514;13.192;2023-05-07T13:00:55;17.80;99.90
9810;DHT22;4944;52.514;13.192;2023-05-07T13:03:28;17.90;99.90
9810;DHT22;4944;52.514;13.192;2023-05-07T13:05:57;17.80;99.90
9810;DHT22;4944;52.514;13.192;2023-05-07T13:08:26;17.80;99.90
9810;DHT22;4944;52.514;13.192;2023-05-07T13:10:53;17.80;99.90
9810;DHT22;4944;52.514;13.192;2023-05-07T13:13:20;17.80;99.90
9810;DHT22;4944;52.514;13.192;2023-05-07T13:15:48;17.70;99.90
9810;DHT22;4944;52.514;13.192;2023-05-07T13:18:15;17.70;99.90
9810;DHT22;4944;52.514;13.192;2023-05-07T13:20:42;17.80;99.90
9810;DHT22;4944;52.514;13.192;2023-05-07T13:23:09;17.80;99.90
9810;DHT22;4944;52.514;13.192;2023-05-07T13:25:36;17.90;99.90
9810;DHT22;4944;52.514;13.192;2023-05-07T13:28:03;18.20;99.90
9810;DHT22;4944;52.514;13.192;2023-05-07T13:30:30;18.20;99.90
9810;DHT22;4944;52.514;13.192;2023-05-07T13:32:59;18.10;99.90
9810;DHT22;4944;52.514;13.192;2023-05-07T13:35:26;18.00;99.90
9810;DHT22;4944;52.514;13.192;2023-05-07T13:37:52;17.90;99.90
9810;DHT22;4944;52.514;13.192;2023-05-07T13:40:20;17.70;99.90
9810;DHT22;4944;52.514;13.192;2023-05-07T13:42:47;17.60;99.90
9810;DHT22;4944;52.514;13.192;2023-05-07T13:45:14;17.60;99.90
9810;DHT22;4944;52.514;13.192;2023-05-07T13:47:41;17.80;99.90
9810;DHT22;4944;52.514;13.192;2023-05-07T13:50:11;17.80;99.90
9810;DHT22;4944;52.514;13.192;2023-05-07T13:52:40;17.80;99.90
9810;DHT22;4944;52.514;13.192;2023-05-07T13:55:09;17.80;99.90
9810;DHT22;4944;52.514;13.192;2023-05-07T13:57:36;17.80;99.90
9810;DHT22;4944;52.514;13.192;2023-05-07T14:00:04;17.70;99.90
9810;DHT22;4944;52.514;13.192;2023-05-07T14:02:31;17.80;99.90
9810;DHT22;4944;52.514;13.192;2023-05-07T14:04:58;18.20;99.90
9810;DHT22;4944;52.514;13.192;2023-05-07T14:07:26;18.50;99.90
9810;DHT22;4944;52.514;13.192;2023-05-07T14:09:54;18.60;99.90
9810;DHT22;4944;52.514;13.192;2023-05-07T14:12:21;18.80;99.90
9810;DHT22;4944;52.514;13.192;2023-05-07T14:14:48;19.10;99.90
9810;DHT22;4944;52.514;13.192;2023-05-07T14:17:15;19.40;99.60
9810;DHT22;4944;52.514;13.192;2023-05-07T14:19:42;19.70;99.50
9810;DHT22;4944;52.514;13.192;2023-05-07T14:22:09;19.90;99.10
9810;DHT22;4944;52.514;13.192;2023-05-07T14:24:37;20.00;98.40
9810;DHT22;4944;52.514;13.192;2023-05-07T14:27:05;20.00;99.10
9810;DHT22;4944;52.514;13.192;2023-05-07T14:29:32;19.70;98.60
9810;DHT22;4944;52.514;13.192;2023-05-07T14:32:01;19.50;98.40
9810;DHT22;4944;52.514;13.192;2023-05-07T14:34:28;19.20;98.50
9810;DHT22;4944;52.514;13.192;2023-05-07T14:36:55;19.20;98.80
9810;DHT22;4944;52.514;13.192;2023-05-07T14:39:22;19.40;98.50
9810;DHT22;4944;52.514;13.192;2023-05-07T14:41:50;19.60;98.70
9810;DHT22;4944;52.514;13.192;2023-05-07T14:44:20;19.90;98.90
9810;DHT22;4944;52.514;13.192;2023-05-07T14:46:46;19.90;98.70
9810;DHT22;4944;52.514;13.192;2023-05-07T14:49:14;20.10;98.30
9810;DHT22;4944;52.514;13.192;2023-05-07T14:51:43;20.20;97.70
9810;DHT22;4944;52.514;13.192;2023-05-07T14:54:10;20.20;97.10
9810;DHT22;4944;52.514;13.192;2023-05-07T14:56:37;20.20;96.80
9810;DHT22;4944;52.514;13.192;2023-05-07T14:59:06;20.20;96.50
9810;DHT22;4944;52.514;13.192;2023-05-07T15:01:34;20.20;96.80
9810;DHT22;4944;52.514;13.192;2023-05-07T15:04:03;20.20;96.40
9810;DHT22;4944;52.514;13.192;2023-05-07T15:06:31;20.20;96.10
9810;DHT22;4944;52.514;13.192;2023-05-07T15:08:59;20.20;96.10
9810;DHT22;4944;52.514;13.192;2023-05-07T15:11:26;20.20;96.50
9810;DHT22;4944;52.514;13.192;2023-05-07T15:13:52;20.30;96.70
9810;DHT22;4944;52.514;13.192;2023-05-07T15:16:21;20.30;96.30
9810;DHT22;4944;52.514;13.192;2023-05-07T15:18:48;20.30;96.80
9810;DHT22;4944;52.514;13.192;2023-05-07T15:21:15;20.30;96.70
9810;DHT22;4944;52.514;13.192;2023-05-07T15:23:42;20.30;96.20
9810;DHT22;4944;52.514;13.192;2023-05-07T15:26:10;20.30;96.30
9810;DHT22;4944;52.514;13.192;2023-05-07T15:28:37;20.20;95.80
9810;DHT22;4944;52.514;13.192;2023-05-07T15:31:04;20.20;96.10
9810;DHT22;4944;52.514;13.192;2023-05-07T15:33:33;20.30;96.10
9810;DHT22;4944;52.514;13.192;2023-05-07T15:36:00;20.40;95.80
9810;DHT22;4944;52.514;13.192;2023-05-07T15:38:28;20.40;96.10
9810;DHT22;4944;52.514;13.192;2023-05-07T15:40:55;20.40;96.20
9810;DHT22;4944;52.514;13.192;2023-05-07T15:43:22;20.30;96.40
9810;DHT22;4944;52.514;13.192;2023-05-07T15:45:50;20.20;96.70
9810;DHT22;4944;52.514;13.192;2023-05-07T15:48:17;19.90;96.20
9810;DHT22;4944;52.514;13.192;2023-05-07T15:50:45;19.60;96.70
9810;DHT22;4944;52.514;13.192;2023-05-07T15:53:12;19.50;97.10